createdAt,value
2018-05-09T00:00:15.153Z,52.08
2018-05-09T00:02:43.431Z,52.25
2018-05-09T00:05:11.699Z,52.00
2018-05-09T00:07:40.002Z,52.23
2018-05-09T00:10:08.286Z,52.84
2018-05-09T00:12:36.590Z,52.56
2018-05-09T00:15:04.887Z,52.52
2018-05-09T00:17:33.172Z,52.63
2018-05-09T00:20:01.451Z,52.46
2018-05-09T00:22:29.739Z,52.43
2018-05-09T00:24:57.989Z,52.37
2018-05-09T00:27:26.283Z,52.53
2018-05-09T00:29:54.583Z,52.67
2018-05-09T00:32:22.900Z,53.25
2018-05-09T00:34:52.006Z,53.61
2018-05-09T00:37:20.346Z,53.74
2018-05-09T00:39:48.639Z,53.40
2018-05-09T00:42:16.877Z,53.22
2018-05-09T00:44:45.170Z,53.16
2018-05-09T00:47:13.453Z,54.11
2018-05-09T00:49:41.786Z,54.11
2018-05-09T00:52:10.070Z,54.00
2018-05-09T00:54:38.367Z,53.93
2018-05-09T00:57:06.612Z,54.15
2018-05-09T00:59:34.947Z,54.69
2018-05-09T01:02:03.205Z,54.78
2018-05-09T01:04:31.490Z,54.35
2018-05-09T01:06:59.769Z,54.42
2018-05-09T01:09:28.035Z,54.91
2018-05-09T01:11:56.313Z,54.88
2018-05-09T01:14:24.914Z,54.84
2018-05-09T01:16:53.187Z,54.58
2018-05-09T01:19:21.461Z,55.00
2018-05-09T01:21:49.773Z,55.38
2018-05-09T01:24:18.103Z,55.33
2018-05-09T01:26:46.357Z,55.04
2018-05-09T01:29:14.668Z,55.29
2018-05-09T01:31:42.907Z,55.54
2018-05-09T01:34:11.178Z,55.13
2018-05-09T01:36:39.434Z,55.57
2018-05-09T01:39:07.736Z,55.78
2018-05-09T01:41:36.002Z,56.10
2018-05-09T01:44:04.365Z,56.01
2018-05-09T01:46:32.684Z,56.60
2018-05-09T01:49:01.003Z,56.58
2018-05-09T01:51:29.294Z,56.55
2018-05-09T01:53:57.577Z,56.29
2018-05-09T01:56:26.478Z,56.85
2018-05-09T01:58:54.758Z,56.84
2018-05-09T02:01:23.114Z,57.39
2018-05-09T02:03:51.366Z,57.00
2018-05-09T02:06:19.663Z,56.92
2018-05-09T02:08:47.963Z,56.75
2018-05-09T02:11:16.317Z,57.03
2018-05-09T02:13:44.583Z,56.96
2018-05-09T02:16:12.858Z,57.02
2018-05-09T02:18:41.202Z,57.44
2018-05-09T02:21:09.488Z,57.82
2018-05-09T02:23:37.741Z,58.03
2018-05-09T02:26:06.059Z,58.47
2018-05-09T02:28:34.342Z,58.06
2018-05-09T02:31:02.717Z,57.40
2018-05-09T02:33:30.910Z,57.63
2018-05-09T02:35:59.168Z,58.16
2018-05-09T02:38:27.495Z,57.84
2018-05-09T02:40:55.747Z,57.76
2018-05-09T02:43:24.029Z,57.63
2018-05-09T02:45:52.380Z,58.10
2018-05-09T02:48:20.657Z,58.22
2018-05-09T02:50:48.968Z,58.57
2018-05-09T02:53:17.218Z,58.69
2018-05-09T02:55:45.499Z,59.10
2018-05-09T02:58:13.782Z,58.87
2018-05-09T03:00:42.048Z,58.58
2018-05-09T03:03:10.483Z,58.95
2018-05-09T03:05:38.723Z,58.85
2018-05-09T03:08:07.012Z,58.73
2018-05-09T03:10:35.261Z,58.79
2018-05-09T03:13:04.598Z,58.43
2018-05-09T03:15:32.862Z,58.87
2018-05-09T03:18:01.143Z,59.30
2018-05-09T03:20:29.532Z,59.38
2018-05-09T03:22:57.757Z,59.77
2018-05-09T03:25:26.346Z,59.62
2018-05-09T03:27:54.576Z,59.48
2018-05-09T03:30:22.888Z,59.51
2018-05-09T03:32:51.559Z,59.35
2018-05-09T03:35:19.842Z,59.29
2018-05-09T03:37:48.097Z,59.33
2018-05-09T03:40:16.416Z,58.98
2018-05-09T03:42:44.667Z,59.39
2018-05-09T03:45:12.973Z,59.53
2018-05-09T03:47:41.270Z,59.71
2018-05-09T03:50:09.551Z,59.79
2018-05-09T03:52:37.803Z,60.25
2018-05-09T03:55:06.090Z,60.47
2018-05-09T03:57:34.358Z,60.54
2018-05-09T04:00:02.659Z,60.44
2018-05-09T04:02:43.895Z,59.99
2018-05-09T04:05:23.753Z,60.42
2018-05-09T04:08:03.702Z,60.79
2018-05-09T04:10:32.004Z,60.73
2018-05-09T04:13:00.268Z,60.52
2018-05-09T04:15:28.542Z,59.94
2018-05-09T04:17:56.831Z,60.67
2018-05-09T04:20:25.096Z,60.67
2018-05-09T04:22:53.413Z,60.74
2018-05-09T04:25:21.724Z,60.70
2018-05-09T04:27:50.047Z,60.58
2018-05-09T04:30:18.308Z,60.76
2018-05-09T04:32:46.586Z,60.86
2018-05-09T04:35:14.860Z,60.92
2018-05-09T04:37:43.150Z,60.81
2018-05-09T04:40:11.470Z,60.72
2018-05-09T04:42:39.858Z,60.75
2018-05-09T04:45:08.152Z,60.13
2018-05-09T04:47:36.480Z,60.62
2018-05-09T04:50:04.871Z,60.65
2018-05-09T04:52:33.178Z,60.71
2018-05-09T04:55:01.487Z,60.56
2018-05-09T04:57:29.771Z,60.22
2018-05-09T04:59:58.053Z,60.47
2018-05-09T05:02:26.338Z,60.46
2018-05-09T05:04:54.688Z,60.24
2018-05-09T05:07:22.933Z,60.20
2018-05-09T05:09:51.221Z,59.89
2018-05-09T05:12:19.522Z,59.71
2018-05-09T05:14:47.782Z,59.55
2018-05-09T05:17:16.093Z,59.22
2018-05-09T05:19:44.453Z,58.88
2018-05-09T05:22:12.715Z,58.91
2018-05-09T05:24:41.038Z,58.08
2018-05-09T05:27:09.643Z,57.53
2018-05-09T05:29:37.815Z,58.22
2018-05-09T05:32:06.151Z,58.37
2018-05-09T05:34:34.409Z,58.56
2018-05-09T05:37:03.434Z,58.23
2018-05-09T05:39:31.805Z,58.09
2018-05-09T05:42:00.109Z,57.83
2018-05-09T05:44:28.374Z,57.49
2018-05-09T05:46:56.735Z,57.29
2018-05-09T05:49:24.988Z,57.44
2018-05-09T05:51:53.336Z,57.47
2018-05-09T05:54:21.622Z,57.29
2018-05-09T05:56:50.016Z,57.12
2018-05-09T05:59:18.279Z,56.30
2018-05-09T06:01:46.651Z,56.33
2018-05-09T06:04:14.925Z,56.10
2018-05-09T06:06:43.858Z,55.35
2018-05-09T06:09:12.147Z,55.01
2018-05-09T06:11:40.496Z,54.95
2018-05-09T06:14:08.786Z,54.83
2018-05-09T06:16:37.077Z,54.29
2018-05-09T06:19:05.655Z,54.20
2018-05-09T06:21:33.960Z,54.28
2018-05-09T06:24:02.405Z,54.32
2018-05-09T06:26:30.620Z,54.15
2018-05-09T06:28:58.957Z,53.84
2018-05-09T06:31:29.199Z,52.88
2018-05-09T06:34:01.105Z,53.18
2018-05-09T06:36:30.507Z,52.79
2018-05-09T06:38:58.797Z,52.66
2018-05-09T06:41:27.994Z,52.38
2018-05-09T06:43:56.304Z,52.12
2018-05-09T06:46:24.618Z,51.66
2018-05-09T06:48:54.061Z,51.27
2018-05-09T06:51:22.920Z,50.85
2018-05-09T06:53:51.202Z,51.22
2018-05-09T06:56:19.590Z,51.02
2018-05-09T06:58:47.913Z,51.05
2018-05-09T07:01:16.203Z,50.89
2018-05-09T07:03:44.950Z,50.65
2018-05-09T07:06:13.454Z,50.38
2018-05-09T07:08:41.675Z,50.08
2018-05-09T07:11:09.977Z,49.89
2018-05-09T07:13:39.153Z,49.65
2018-05-09T07:16:07.466Z,49.30
2018-05-09T07:18:35.736Z,49.09
2018-05-09T07:21:05.424Z,49.03
2018-05-09T07:23:33.870Z,48.87
2018-05-09T07:26:02.863Z,48.48
2018-05-09T07:28:31.149Z,48.19
2018-05-09T07:30:59.729Z,47.72
2018-05-09T07:33:28.023Z,47.64
2018-05-09T07:35:57.019Z,47.79
2018-05-09T07:38:25.290Z,47.79
2018-05-09T07:40:53.577Z,47.67
2018-05-09T07:43:23.591Z,47.41
2018-05-09T07:45:53.388Z,47.26
2018-05-09T07:48:22.760Z,47.11
2018-05-09T07:50:51.075Z,46.56
2018-05-09T07:53:19.341Z,45.86
2018-05-09T07:55:47.686Z,46.18
2018-05-09T07:58:15.917Z,45.89
2018-05-09T08:00:44.926Z,45.96
2018-05-09T08:03:13.221Z,46.17
2018-05-09T08:05:41.485Z,45.91
2018-05-09T08:08:09.749Z,45.41
2018-05-09T08:10:38.126Z,45.31
2018-05-09T08:13:07.210Z,45.11
2018-05-09T08:15:35.527Z,45.42
2018-05-09T08:18:03.858Z,44.32
2018-05-09T08:20:32.138Z,43.77
2018-05-09T08:23:00.421Z,42.40
2018-05-09T08:25:28.694Z,41.96
2018-05-09T08:27:56.970Z,41.14
2018-05-09T08:30:25.295Z,41.30
2018-05-09T08:32:53.743Z,40.97
2018-05-09T08:35:22.014Z,40.15
2018-05-09T08:37:50.364Z,40.25
2018-05-09T08:40:18.685Z,39.63
2018-05-09T08:42:47.923Z,39.25
2018-05-09T08:45:16.213Z,39.08
2018-05-09T08:47:47.537Z,39.11
2018-05-09T08:50:15.840Z,38.67
2018-05-09T08:52:44.136Z,38.84
2018-05-09T08:55:12.448Z,38.77
2018-05-09T08:57:40.764Z,38.37
2018-05-09T09:00:09.023Z,37.99
2018-05-09T09:02:37.325Z,37.42
2018-05-09T09:05:05.630Z,37.60
2018-05-09T09:07:33.922Z,37.42
2018-05-09T09:10:03.836Z,37.09
2018-05-09T09:12:32.117Z,36.26
2018-05-09T09:15:00.495Z,36.58
2018-05-09T09:17:28.889Z,36.96
2018-05-09T09:19:58.320Z,36.83
2018-05-09T09:22:26.624Z,36.83
2018-05-09T09:24:56.464Z,36.58
2018-05-09T09:27:25.510Z,35.81
2018-05-09T09:30:10.152Z,36.20
2018-05-09T09:32:39.091Z,35.70
2018-05-09T09:35:08.216Z,35.29
2018-05-09T09:37:36.471Z,34.94
2018-05-09T09:40:04.777Z,35.48
2018-05-09T09:42:38.613Z,34.82
2018-05-09T09:45:06.948Z,34.41
2018-05-09T09:47:35.218Z,34.61
2018-05-09T09:50:03.513Z,35.05
2018-05-09T09:52:31.850Z,34.39
2018-05-09T09:55:00.784Z,33.80
2018-05-09T09:57:29.143Z,33.62
2018-05-09T09:59:57.522Z,33.22
2018-05-09T10:02:26.070Z,33.69
2018-05-09T10:04:54.347Z,33.29
2018-05-09T10:07:22.809Z,34.16
2018-05-09T10:09:51.445Z,34.59
2018-05-09T10:12:19.744Z,34.05
2018-05-09T10:14:48.159Z,34.28
2018-05-09T10:17:17.755Z,33.95
2018-05-09T10:19:46.036Z,33.73
2018-05-09T10:22:14.337Z,33.38
2018-05-09T10:24:42.690Z,33.04
2018-05-09T10:27:11.109Z,32.87
2018-05-09T10:29:39.413Z,32.25
2018-05-09T10:32:07.694Z,31.94
2018-05-09T10:34:36.221Z,31.82
2018-05-09T10:37:05.314Z,32.26
2018-05-09T10:39:33.712Z,32.29
2018-05-09T10:42:02.066Z,32.49
2018-05-09T10:44:31.851Z,33.26
2018-05-09T10:47:00.250Z,33.00
2018-05-09T10:49:28.524Z,32.92
2018-05-09T10:51:56.825Z,32.91
2018-05-09T10:54:25.106Z,33.07
2018-05-09T10:56:53.369Z,32.90
2018-05-09T10:59:21.750Z,33.04
2018-05-09T11:01:50.050Z,33.00
2018-05-09T11:04:18.366Z,33.54
2018-05-09T11:06:46.662Z,33.41
2018-05-09T11:09:14.920Z,33.86
2018-05-09T11:11:43.193Z,34.30
2018-05-09T11:14:11.993Z,34.46
2018-05-09T11:16:40.604Z,33.91
2018-05-09T11:19:09.822Z,33.28
2018-05-09T11:21:38.191Z,33.15
2018-05-09T11:24:06.543Z,32.47
2018-05-09T11:26:34.820Z,32.67
2018-05-09T11:29:03.108Z,33.42
2018-05-09T11:31:32.301Z,33.81
2018-05-09T11:34:00.606Z,33.82
2018-05-09T11:36:28.982Z,33.69
2018-05-09T11:38:57.269Z,33.19
2018-05-09T11:41:25.563Z,32.66
2018-05-09T11:43:53.833Z,32.18
2018-05-09T11:46:22.555Z,32.25
2018-05-09T11:48:50.863Z,31.67
2018-05-09T11:51:19.174Z,31.44
2018-05-09T11:53:48.349Z,31.82
2018-05-09T11:56:16.649Z,31.70
2018-05-09T11:58:44.978Z,31.56
2018-05-09T12:01:13.353Z,31.10
2018-05-09T12:03:41.641Z,31.75
2018-05-09T12:06:11.885Z,31.74
2018-05-09T12:08:40.155Z,31.83
2018-05-09T12:11:08.458Z,31.10
2018-05-09T12:13:36.780Z,31.59
2018-05-09T12:16:05.149Z,31.11
2018-05-09T12:18:33.525Z,29.92
2018-05-09T12:21:02.723Z,29.90
2018-05-09T12:23:31.018Z,29.73
2018-05-09T12:25:59.324Z,29.08
2018-05-09T12:28:27.621Z,28.57
2018-05-09T12:30:55.898Z,29.18
2018-05-09T12:33:24.259Z,29.43
2018-05-09T12:35:54.055Z,29.36
2018-05-09T12:38:22.352Z,29.38
2018-05-09T12:40:50.676Z,29.45
2018-05-09T12:43:19.022Z,29.76
2018-05-09T12:45:47.307Z,29.58
2018-05-09T12:48:15.627Z,29.10
2018-05-09T12:50:43.890Z,29.24
2018-05-09T12:53:12.369Z,29.13
2018-05-09T12:55:41.180Z,28.62
2018-05-09T12:58:09.719Z,28.10
2018-05-09T13:00:38.004Z,28.00
2018-05-09T13:03:06.303Z,27.01
2018-05-09T13:05:34.568Z,27.21
2018-05-09T13:08:02.947Z,26.38
2018-05-09T13:10:31.209Z,26.37
2018-05-09T13:12:59.997Z,26.04
2018-05-09T13:15:28.296Z,26.52
2018-05-09T13:17:57.420Z,26.75
2018-05-09T13:20:26.109Z,26.38
2018-05-09T13:22:54.372Z,26.39
2018-05-09T13:25:22.711Z,26.49
2018-05-09T13:27:51.015Z,27.52
2018-05-09T13:30:19.292Z,27.49
2018-05-09T13:32:47.599Z,26.18
2018-05-09T13:35:15.915Z,26.76
2018-05-09T13:37:45.183Z,26.35
2018-05-09T13:40:13.493Z,25.74
2018-05-09T13:42:41.745Z,25.75
2018-05-09T13:45:10.126Z,26.37
2018-05-09T13:47:38.428Z,26.83
2018-05-09T13:50:06.782Z,26.53
2018-05-09T13:52:35.066Z,27.10
2018-05-09T13:55:03.425Z,27.57
2018-05-09T13:57:31.747Z,27.39
2018-05-09T14:00:00.112Z,26.98
2018-05-09T14:02:28.406Z,25.81
2018-05-09T14:04:56.749Z,25.85
2018-05-09T14:07:25.079Z,26.53
2018-05-09T14:09:53.412Z,27.09
2018-05-09T14:12:21.638Z,27.15
2018-05-09T14:14:50.092Z,27.84
2018-05-09T14:17:19.079Z,28.06
2018-05-09T14:19:47.362Z,28.06
2018-05-09T14:22:15.716Z,27.90
2018-05-09T14:24:43.971Z,27.32
2018-05-09T14:27:16.235Z,26.86
2018-05-09T14:29:44.543Z,25.95
2018-05-09T14:32:13.868Z,25.25
2018-05-09T14:34:42.122Z,25.49
2018-05-09T14:37:10.430Z,26.09
2018-05-09T14:39:38.723Z,26.42
2018-05-09T14:42:07.065Z,26.51
2018-05-09T14:44:35.324Z,26.73
2018-05-09T14:47:03.700Z,27.56
2018-05-09T14:49:31.954Z,27.67
2018-05-09T14:52:00.266Z,28.23
2018-05-09T14:54:28.638Z,28.40
2018-05-09T14:56:57.703Z,28.88
2018-05-09T14:59:26.069Z,28.63
2018-05-09T15:01:54.347Z,28.31
2018-05-09T15:04:22.663Z,27.55
2018-05-09T15:06:50.937Z,26.85
2018-05-09T15:09:20.821Z,25.44
2018-05-09T15:11:49.207Z,24.70
2018-05-09T15:14:17.578Z,24.82
2018-05-09T15:16:46.134Z,24.76
2018-05-09T15:19:15.048Z,25.08
2018-05-09T15:21:43.331Z,25.01
2018-05-09T15:24:11.633Z,25.00
2018-05-09T15:26:39.956Z,24.24
2018-05-09T15:29:08.305Z,23.91
2018-05-09T15:31:36.572Z,23.54
2018-05-09T15:34:04.911Z,23.28
2018-05-09T15:36:33.193Z,22.28
2018-05-09T15:39:01.594Z,22.18
2018-05-09T15:41:29.760Z,22.39
2018-05-09T15:43:58.079Z,22.23
2018-05-09T15:46:26.411Z,21.86
2018-05-09T15:48:54.823Z,23.39
2018-05-09T15:51:23.098Z,24.94
2018-05-09T15:53:51.553Z,25.19
2018-05-09T15:56:19.957Z,25.51
2018-05-09T15:58:49.135Z,25.68
2018-05-09T16:01:17.434Z,25.09
2018-05-09T16:03:45.694Z,24.56
2018-05-09T16:06:14.068Z,24.37
2018-05-09T16:08:42.379Z,24.61
2018-05-09T16:11:11.202Z,24.16
2018-05-09T16:13:39.505Z,24.76
2018-05-09T16:16:07.786Z,25.39
2018-05-09T16:18:36.048Z,25.45
2018-05-09T16:21:04.455Z,25.87
2018-05-09T16:23:33.836Z,25.67
2018-05-09T16:26:02.127Z,25.02
2018-05-09T16:28:30.417Z,24.88
2018-05-09T16:30:58.745Z,24.35
2018-05-09T16:33:27.108Z,24.28
2018-05-09T16:35:55.394Z,24.56
2018-05-09T16:38:23.655Z,24.56
2018-05-09T16:40:51.999Z,24.43
2018-05-09T16:43:20.269Z,24.21
2018-05-09T16:45:48.633Z,23.79
2018-05-09T16:48:16.921Z,23.58
2018-05-09T16:50:45.228Z,23.96
2018-05-09T16:53:13.494Z,23.88
2018-05-09T16:55:41.847Z,23.98
2018-05-09T16:58:10.123Z,23.97
2018-05-09T17:00:38.474Z,24.43
2018-05-09T17:03:07.098Z,24.81
2018-05-09T17:05:35.471Z,25.21
2018-05-09T17:08:03.677Z,25.50
2018-05-09T17:10:31.986Z,25.59
2018-05-09T17:13:00.415Z,25.29
2018-05-09T17:15:28.578Z,25.25
2018-05-09T17:17:56.866Z,25.73
2018-05-09T17:20:25.142Z,26.41
2018-05-09T17:22:54.437Z,26.49
2018-05-09T17:25:22.701Z,26.76
2018-05-09T17:27:50.989Z,26.94
2018-05-09T17:30:19.292Z,27.04
2018-05-09T17:32:47.585Z,27.38
2018-05-09T17:35:15.857Z,29.75
2018-05-09T17:37:44.177Z,29.08
2018-05-09T17:40:12.464Z,29.88
2018-05-09T17:42:40.824Z,31.64
2018-05-09T17:45:09.003Z,30.10
2018-05-09T17:47:37.282Z,29.31
2018-05-09T17:50:05.911Z,31.10
2018-05-09T17:52:34.194Z,29.99
2018-05-09T17:55:02.479Z,29.27
2018-05-09T17:57:30.803Z,30.87
2018-05-09T17:59:59.104Z,30.69
2018-05-09T18:02:27.378Z,30.71
2018-05-09T18:04:55.656Z,30.27
2018-05-09T18:07:24.046Z,30.39
2018-05-09T18:09:53.138Z,30.63
2018-05-09T18:12:21.395Z,31.31
2018-05-09T18:14:49.721Z,31.27
2018-05-09T18:17:17.964Z,31.23
2018-05-09T18:19:46.398Z,31.55
2018-05-09T18:22:14.672Z,32.33
2018-05-09T18:24:42.955Z,32.31
2018-05-09T18:27:11.232Z,31.52
2018-05-09T18:29:39.531Z,32.03
2018-05-09T18:32:08.197Z,32.31
2018-05-09T18:34:36.512Z,32.53
2018-05-09T18:37:04.889Z,32.88
2018-05-09T18:39:33.146Z,33.18
2018-05-09T18:42:01.423Z,33.34
2018-05-09T18:44:30.091Z,33.83
2018-05-09T18:46:58.375Z,34.85
2018-05-09T18:49:26.685Z,35.15
2018-05-09T18:51:54.990Z,35.64
2018-05-09T18:54:23.263Z,36.19
2018-05-09T18:56:51.559Z,37.13
2018-05-09T18:59:19.855Z,37.57
2018-05-09T19:01:48.141Z,37.71
2018-05-09T19:04:16.707Z,38.39
2018-05-09T19:06:44.974Z,38.11
2018-05-09T19:09:13.236Z,38.51
2018-05-09T19:11:41.538Z,38.85
2018-05-09T19:14:09.810Z,39.38
2018-05-09T19:16:38.150Z,39.47
2018-05-09T19:19:06.544Z,39.51
2018-05-09T19:21:34.913Z,40.06
2018-05-09T19:24:03.255Z,40.28
2018-05-09T19:26:31.729Z,40.54
2018-05-09T19:29:00.014Z,41.22
2018-05-09T19:31:28.287Z,41.76
2018-05-09T19:33:56.594Z,41.80
2018-05-09T19:36:24.919Z,42.33
2018-05-09T19:38:53.248Z,45.49
2018-05-09T19:41:21.510Z,44.44
2018-05-09T19:43:49.822Z,43.56
2018-05-09T19:46:18.123Z,43.03
2018-05-09T19:48:46.416Z,41.98
2018-05-09T19:51:14.666Z,41.82
2018-05-09T19:53:43.024Z,41.37
2018-05-09T19:56:11.268Z,42.03
2018-05-09T19:58:39.562Z,42.30
2018-05-09T20:01:07.866Z,42.00
2018-05-09T20:03:36.137Z,42.25
2018-05-09T20:06:05.121Z,41.62
2018-05-09T20:08:34.029Z,43.04
2018-05-09T20:11:02.336Z,42.64
2018-05-09T20:13:30.733Z,42.68
2018-05-09T20:15:59.070Z,43.46
2018-05-09T20:18:27.338Z,44.24
2018-05-09T20:20:55.631Z,43.38
2018-05-09T20:23:23.923Z,42.62
2018-05-09T20:25:52.231Z,41.98
2018-05-09T20:28:20.575Z,41.71
2018-05-09T20:30:54.833Z,41.66
2018-05-09T20:33:23.758Z,41.91
2018-05-09T20:35:52.065Z,41.96
2018-05-09T20:38:20.378Z,42.03
2018-05-09T20:40:48.685Z,41.85
2018-05-09T20:43:17.031Z,42.06
2018-05-09T20:45:45.686Z,41.85
2018-05-09T20:48:14.653Z,42.30
2018-05-09T20:50:43.562Z,42.68
2018-05-09T20:53:11.852Z,42.52
2018-05-09T20:55:40.203Z,43.39
2018-05-09T20:58:08.575Z,42.89
2018-05-09T21:00:36.853Z,42.58
2018-05-09T21:03:05.138Z,42.84
2018-05-09T21:05:33.608Z,42.87
2018-05-09T21:08:01.979Z,42.58
2018-05-09T21:10:30.466Z,42.47
2018-05-09T21:13:00.275Z,42.55
2018-05-09T21:15:28.616Z,42.68
2018-05-09T21:17:56.828Z,43.52
2018-05-09T21:20:25.090Z,43.46
2018-05-09T21:22:53.386Z,43.38
2018-05-09T21:25:21.690Z,43.23
2018-05-09T21:27:50.092Z,43.21
2018-05-09T21:30:18.402Z,43.02
2018-05-09T21:32:46.643Z,43.05
2018-05-09T21:35:14.899Z,43.14
2018-05-09T21:37:43.253Z,43.07
2018-05-09T21:40:11.497Z,43.08
2018-05-09T21:42:39.741Z,43.23
2018-05-09T21:45:08.149Z,43.55
2018-05-09T21:47:36.484Z,43.39
2018-05-09T21:50:04.832Z,43.36
2018-05-09T21:52:33.188Z,43.42
2018-05-09T21:55:01.495Z,43.43
2018-05-09T21:57:30.247Z,43.52
2018-05-09T21:59:59.529Z,43.59
2018-05-09T22:02:28.910Z,43.84
2018-05-09T22:04:57.231Z,44.36
2018-05-09T22:07:25.509Z,44.12
2018-05-09T22:09:53.812Z,44.27
2018-05-09T22:12:22.148Z,44.81
2018-05-09T22:14:50.446Z,44.73
2018-05-09T22:17:18.774Z,45.59
2018-05-09T22:19:47.060Z,46.08
2018-05-09T22:22:15.333Z,48.72
2018-05-09T22:24:43.762Z,50.27
2018-05-09T22:27:12.068Z,51.55
2018-05-09T22:29:40.574Z,52.49
2018-05-09T22:32:08.875Z,52.75
2018-05-09T22:34:37.241Z,52.69
2018-05-09T22:37:05.575Z,53.26
2018-05-09T22:39:33.819Z,53.33
2018-05-09T22:42:02.241Z,53.58
2018-05-09T22:44:30.575Z,54.57
2018-05-09T22:46:58.912Z,54.79
2018-05-09T22:49:27.322Z,54.46
2018-05-09T22:51:55.642Z,55.31
2018-05-09T22:54:24.200Z,55.24
2018-05-09T22:56:52.482Z,55.53
2018-05-09T22:59:20.756Z,55.51
2018-05-09T23:01:49.031Z,55.28
2018-05-09T23:04:17.320Z,55.43
2018-05-09T23:06:46.744Z,55.49
2018-05-09T23:09:15.026Z,56.14
2018-05-09T23:11:43.303Z,56.37
2018-05-09T23:14:11.629Z,55.94
2018-05-09T23:16:39.885Z,55.97
2018-05-09T23:19:09.085Z,55.90
2018-05-09T23:21:38.671Z,56.38
2018-05-09T23:24:06.971Z,56.34
2018-05-09T23:26:35.301Z,56.56
2018-05-09T23:29:03.634Z,56.51
2018-05-09T23:31:31.905Z,56.77
2018-05-09T23:34:00.524Z,57.50
2018-05-09T23:36:28.765Z,57.67
2018-05-09T23:38:57.053Z,57.67
2018-05-09T23:41:25.332Z,57.19
2018-05-09T23:43:53.666Z,56.86
2018-05-09T23:46:22.003Z,57.08
2018-05-09T23:48:50.301Z,57.12
2018-05-09T23:51:18.578Z,57.34
2018-05-09T23:53:46.892Z,57.54
2018-05-09T23:56:15.169Z,57.59
2018-05-09T23:58:43.455Z,57.65
